createdAt,value
2023-10-09T00:00:50.905Z,8.13
2023-10-09T00:03:18.436Z,6.63
2023-10-09T00:05:45.107Z,12.60
2023-10-09T00:08:11.632Z,11.93
2023-10-09T00:10:39.687Z,12.02
2023-10-09T00:13:06.278Z,11.70
2023-10-09T00:15:33.916Z,7.25
2023-10-09T00:18:03.895Z,6.60
2023-10-09T00:20:30.505Z,6.07
2023-10-09T00:22:56.925Z,7.07
2023-10-09T00:25:23.463Z,6.80
2023-10-09T00:27:51.723Z,8.85
2023-10-09T00:30:19.382Z,10.23
2023-10-09T00:32:46.738Z,8.07
2023-10-09T00:35:13.288Z,7.35
2023-10-09T00:37:39.903Z,7.75
2023-10-09T00:40:07.718Z,7.13
2023-10-09T00:42:34.318Z,6.82
2023-10-09T00:45:02.626Z,8.13
2023-10-09T00:47:32.496Z,6.32
2023-10-09T00:50:00.770Z,7.88
2023-10-09T00:52:30.363Z,14.52
2023-10-09T00:54:57.297Z,10.57
2023-10-09T00:57:24.044Z,6.80
2023-10-09T00:59:55.126Z,5.95
2023-10-09T01:02:23.029Z,7.57
2023-10-09T01:04:49.626Z,8.13
2023-10-09T01:07:16.641Z,11.07
2023-10-09T01:09:44.160Z,8.00
2023-10-09T01:12:11.148Z,10.27
2023-10-09T01:14:37.744Z,9.38
2023-10-09T01:17:05.085Z,7.68
2023-10-09T01:19:33.344Z,9.43
2023-10-09T01:21:59.999Z,10.47
2023-10-09T01:24:27.952Z,11.38
2023-10-09T01:26:54.714Z,10.05
2023-10-09T01:29:22.292Z,13.73
2023-10-09T01:31:50.169Z,13.18
2023-10-09T01:34:17.189Z,16.43
2023-10-09T01:36:43.839Z,16.63
2023-10-09T01:39:10.555Z,13.23
2023-10-09T01:41:38.487Z,15.75
2023-10-09T01:44:05.371Z,10.50
2023-10-09T01:46:32.216Z,9.27
2023-10-09T01:48:58.740Z,8.52
2023-10-09T01:51:25.303Z,9.60
2023-10-09T01:53:52.090Z,9.88
2023-10-09T01:56:18.883Z,8.10
2023-10-09T01:58:46.865Z,15.13
2023-10-09T02:01:13.752Z,15.25
2023-10-09T02:03:40.822Z,14.60
2023-10-09T02:06:07.757Z,11.77
2023-10-09T02:08:34.229Z,14.02
2023-10-09T02:11:00.665Z,8.33
2023-10-09T02:13:27.191Z,8.63
2023-10-09T02:15:57.367Z,9.80
2023-10-09T02:18:24.056Z,10.75
2023-10-09T02:20:52.461Z,10.40
2023-10-09T02:23:19.036Z,11.90
2023-10-09T02:25:46.601Z,14.13
2023-10-09T02:28:13.061Z,12.73
2023-10-09T02:30:39.774Z,13.88
2023-10-09T02:33:08.048Z,13.30
2023-10-09T02:35:34.759Z,16.07
2023-10-09T02:38:01.261Z,15.88
2023-10-09T02:40:29.186Z,13.40
2023-10-09T02:42:55.641Z,15.07
2023-10-09T02:45:22.160Z,17.98
2023-10-09T02:47:48.910Z,14.13
2023-10-09T02:50:17.456Z,14.60
2023-10-09T02:52:43.945Z,16.73
2023-10-09T02:55:10.452Z,16.67
2023-10-09T02:57:37.075Z,17.63
2023-10-09T03:00:05.042Z,15.50
2023-10-09T03:02:31.866Z,14.85
2023-10-09T03:04:58.595Z,14.65
2023-10-09T03:07:26.888Z,16.20
2023-10-09T03:09:53.397Z,16.77
2023-10-09T03:12:20.030Z,16.20
2023-10-09T03:14:47.072Z,15.70
2023-10-09T03:17:13.967Z,11.98
2023-10-09T03:19:41.224Z,12.90
2023-10-09T03:22:08.868Z,12.88
2023-10-09T03:24:37.163Z,12.97
2023-10-09T03:27:03.854Z,12.52
2023-10-09T03:29:30.352Z,10.18
2023-10-09T03:31:57.028Z,12.27
2023-10-09T03:34:23.772Z,13.00
2023-10-09T03:36:50.428Z,15.20
2023-10-09T03:39:17.331Z,13.07
2023-10-09T03:41:45.466Z,17.35
2023-10-09T03:44:12.421Z,17.08
2023-10-09T03:46:39.064Z,16.00
2023-10-09T03:49:05.592Z,15.73
2023-10-09T03:51:32.178Z,19.13
2023-10-09T03:53:58.914Z,17.92
2023-10-09T03:56:25.427Z,16.27
2023-10-09T03:58:53.235Z,15.15
2023-10-09T04:01:20.703Z,14.07
2023-10-09T04:03:47.452Z,14.50
2023-10-09T04:06:14.290Z,14.90
2023-10-09T04:08:40.747Z,18.08
2023-10-09T04:11:07.314Z,15.82
2023-10-09T04:13:36.977Z,14.17
2023-10-09T04:16:05.213Z,13.73
2023-10-09T04:18:31.745Z,15.23
2023-10-09T04:20:58.528Z,13.38
2023-10-09T04:23:25.061Z,14.68
2023-10-09T04:25:51.511Z,13.33
2023-10-09T04:28:17.986Z,15.60
2023-10-09T04:30:44.995Z,12.57
2023-10-09T04:33:14.145Z,14.57
2023-10-09T04:35:40.592Z,15.48
2023-10-09T04:38:07.268Z,20.13
2023-10-09T04:40:34.214Z,19.20
2023-10-09T04:43:00.758Z,19.27
2023-10-09T04:45:27.359Z,14.77
2023-10-09T04:47:53.835Z,18.60
2023-10-09T04:50:21.895Z,14.17
2023-10-09T04:52:48.508Z,16.30
2023-10-09T04:55:15.071Z,22.52
2023-10-09T04:57:42.871Z,19.17
2023-10-09T05:00:10.913Z,18.60
2023-10-09T05:02:37.623Z,34.43
2023-10-09T05:05:05.203Z,31.40
2023-10-09T05:07:33.235Z,17.55
2023-10-09T05:09:59.881Z,19.45
2023-10-09T05:12:26.383Z,12.93
2023-10-09T05:14:53.428Z,16.43
2023-10-09T05:17:20.145Z,14.90
2023-10-09T05:19:46.670Z,16.92
2023-10-09T05:22:13.186Z,16.83
2023-10-09T05:24:41.069Z,13.25
2023-10-09T05:27:07.556Z,14.80
2023-10-09T05:29:34.043Z,13.23
2023-10-09T05:32:01.858Z,12.15
2023-10-09T05:34:28.405Z,15.70
2023-10-09T05:36:54.955Z,16.08
2023-10-09T05:39:21.514Z,11.63
2023-10-09T05:41:49.525Z,12.52
2023-10-09T05:44:15.998Z,12.90
2023-10-09T05:46:42.574Z,12.73
2023-10-09T05:49:09.080Z,11.40
2023-10-09T05:51:35.625Z,11.97
2023-10-09T05:54:02.188Z,11.38
2023-10-09T05:56:28.697Z,12.25
2023-10-09T05:58:56.493Z,13.05
2023-10-09T06:01:23.003Z,11.85
2023-10-09T06:03:49.647Z,10.03
2023-10-09T06:06:16.687Z,12.68
2023-10-09T06:08:43.338Z,12.30
2023-10-09T06:11:10.673Z,12.52
2023-10-09T06:13:37.388Z,12.35
2023-10-09T06:16:05.476Z,10.63
2023-10-09T06:18:31.977Z,11.10
2023-10-09T06:20:58.527Z,12.07
2023-10-09T06:23:25.017Z,11.80
2023-10-09T06:25:51.732Z,12.50
2023-10-09T06:28:18.787Z,10.60
2023-10-09T06:30:45.561Z,12.05
2023-10-09T06:33:13.574Z,11.02
2023-10-09T06:35:40.265Z,12.10
2023-10-09T06:38:12.298Z,11.80
2023-10-09T06:40:39.453Z,10.03
2023-10-09T06:43:06.443Z,10.43
2023-10-09T06:45:36.305Z,11.13
2023-10-09T06:48:03.229Z,11.60
2023-10-09T06:50:31.132Z,10.38
2023-10-09T06:52:57.591Z,9.63
2023-10-09T06:55:24.346Z,12.10
2023-10-09T06:57:50.790Z,9.82
2023-10-09T07:00:17.766Z,10.60
2023-10-09T07:02:44.385Z,10.27
2023-10-09T07:05:13.891Z,9.87
2023-10-09T07:07:42.487Z,13.43
2023-10-09T07:10:09.498Z,10.77
2023-10-09T07:12:36.214Z,9.82
2023-10-09T07:15:03.496Z,10.43
2023-10-09T07:17:30.321Z,13.97
2023-10-09T07:19:56.952Z,9.85
2023-10-09T07:22:23.759Z,9.30
2023-10-09T07:24:53.913Z,11.35
2023-10-09T07:27:20.786Z,12.88
2023-10-09T07:29:47.343Z,11.00
2023-10-09T07:32:14.057Z,11.45
2023-10-09T07:34:40.572Z,10.77
2023-10-09T07:37:07.085Z,10.40
2023-10-09T07:39:33.547Z,10.10
2023-10-09T07:42:02.176Z,14.30
2023-10-09T07:44:28.888Z,9.80
2023-10-09T07:46:55.361Z,9.25
2023-10-09T07:49:21.860Z,12.60
2023-10-09T07:51:48.380Z,11.88
2023-10-09T07:54:15.166Z,10.57
2023-10-09T07:56:43.523Z,9.95
2023-10-09T07:59:11.808Z,10.43
2023-10-09T08:01:39.256Z,13.85
2023-10-09T08:04:06.353Z,13.02
2023-10-09T08:06:33.305Z,12.07
2023-10-09T08:09:00.320Z,13.10
2023-10-09T08:11:26.869Z,10.15
2023-10-09T08:13:53.441Z,12.52
2023-10-09T08:16:21.234Z,12.40
2023-10-09T08:18:47.768Z,10.97
2023-10-09T08:21:14.357Z,10.13
2023-10-09T08:23:40.907Z,10.82
2023-10-09T08:26:07.438Z,12.35
2023-10-09T08:28:34.205Z,9.23
2023-10-09T08:31:00.841Z,11.53
2023-10-09T08:35:58.830Z,12.55
2023-10-09T08:38:25.836Z,9.63
2023-10-09T08:40:53.002Z,10.45
2023-10-09T08:43:20.772Z,12.67
2023-10-09T08:45:49.270Z,10.82
2023-10-09T08:48:16.396Z,9.70
2023-10-09T08:50:45.944Z,10.55
2023-10-09T08:53:14.576Z,10.85
2023-10-09T08:55:42.053Z,10.57
2023-10-09T08:58:09.290Z,11.07
2023-10-09T09:00:35.750Z,12.98
2023-10-09T09:03:02.820Z,11.57
2023-10-09T09:05:29.421Z,11.77
2023-10-09T09:07:57.249Z,10.60
2023-10-09T09:10:29.255Z,9.60
2023-10-09T09:12:55.885Z,9.30
2023-10-09T09:15:22.870Z,10.32
2023-10-09T09:17:49.591Z,10.82
2023-10-09T09:20:20.994Z,9.30
2023-10-09T09:22:53.786Z,10.82
2023-10-09T09:25:21.680Z,11.15
2023-10-09T09:27:48.474Z,10.27
2023-10-09T09:30:23.874Z,10.82
2023-10-09T09:32:50.485Z,9.03
2023-10-09T09:35:17.250Z,13.07
2023-10-09T09:37:53.707Z,11.38
2023-10-09T09:40:21.890Z,11.07
2023-10-09T09:42:49.963Z,9.75
2023-10-09T09:45:17.081Z,10.30
2023-10-09T09:47:45.303Z,14.77
2023-10-09T09:50:13.010Z,11.18
2023-10-09T09:52:40.593Z,10.77
2023-10-09T09:55:09.536Z,10.85
2023-10-09T09:57:37.739Z,12.30
2023-10-09T10:00:07.253Z,10.00
2023-10-09T10:02:38.088Z,11.88
2023-10-09T10:05:09.298Z,10.82
2023-10-09T10:07:36.480Z,11.90
2023-10-09T10:10:03.102Z,12.17
2023-10-09T10:16:05.138Z,12.50
2023-10-09T10:18:34.355Z,11.15
2023-10-09T10:21:11.731Z,13.40
2023-10-09T10:23:38.249Z,10.52
2023-10-09T10:26:17.557Z,14.43
2023-10-09T10:28:44.361Z,14.18
2023-10-09T10:31:11.494Z,11.45
2023-10-09T10:34:07.188Z,10.90
2023-10-09T10:36:33.702Z,13.85
2023-10-09T10:39:01.407Z,11.43
2023-10-09T10:41:27.914Z,11.38
2023-10-09T10:43:54.467Z,11.05
2023-10-09T10:46:22.776Z,10.97
2023-10-09T10:48:50.244Z,9.77
2023-10-09T10:51:18.105Z,12.35
2023-10-09T10:53:52.535Z,11.90
2023-10-09T10:56:20.092Z,11.20
2023-10-09T10:58:53.713Z,13.00
2023-10-09T11:01:22.922Z,12.93
2023-10-09T11:03:50.516Z,9.75
2023-10-09T11:06:25.718Z,11.07
2023-10-09T11:08:52.158Z,11.45
2023-10-09T11:11:18.746Z,11.63
2023-10-09T11:13:45.496Z,12.13
2023-10-09T11:16:12.181Z,10.70
2023-10-09T11:18:40.573Z,12.05
2023-10-09T11:21:07.471Z,10.57
2023-10-09T11:23:36.142Z,10.53
2023-10-09T11:26:04.622Z,10.43
2023-10-09T11:28:31.523Z,10.23
2023-10-09T11:31:09.955Z,10.02
2023-10-09T11:33:46.356Z,9.90
2023-10-09T11:36:12.927Z,9.77
2023-10-09T11:38:40.712Z,10.02
2023-10-09T11:41:14.000Z,11.80
2023-10-09T11:43:47.959Z,13.15
2023-10-09T11:46:14.589Z,11.10
2023-10-09T11:48:41.100Z,11.10
2023-10-09T11:51:13.355Z,11.57
2023-10-09T11:53:42.786Z,10.55
2023-10-09T11:56:09.570Z,10.30
2023-10-09T11:58:36.047Z,10.57
2023-10-09T12:01:12.632Z,11.70
2023-10-09T12:03:39.156Z,11.40
2023-10-09T12:06:05.967Z,10.30
2023-10-09T12:08:32.736Z,10.00
2023-10-09T12:11:01.140Z,10.32
2023-10-09T12:13:27.600Z,11.03
2023-10-09T12:15:54.268Z,10.98
2023-10-09T12:18:22.024Z,11.48
2023-10-09T12:20:51.265Z,10.60
2023-10-09T12:23:18.938Z,9.43
2023-10-09T12:25:46.258Z,9.40
2023-10-09T12:28:14.891Z,11.23
2023-10-09T12:30:42.247Z,12.80
2023-10-09T12:33:09.645Z,11.77
2023-10-09T12:35:40.072Z,10.77
2023-10-09T12:38:07.387Z,9.97
2023-10-09T12:40:33.896Z,13.25
2023-10-09T12:43:00.356Z,10.32
2023-10-09T12:45:28.401Z,10.70
2023-10-09T12:47:55.343Z,12.30
2023-10-09T12:50:22.048Z,9.40
2023-10-09T12:52:48.541Z,9.23
2023-10-09T12:55:15.361Z,9.98
2023-10-09T12:57:41.847Z,9.82
2023-10-09T13:00:09.168Z,11.45
2023-10-09T13:02:37.101Z,10.20
2023-10-09T13:05:04.324Z,11.32
2023-10-09T13:07:30.893Z,10.57
2023-10-09T13:09:57.876Z,9.73
2023-10-09T13:12:24.325Z,11.40
2023-10-09T13:14:50.875Z,11.30
2023-10-09T13:17:17.596Z,11.60
2023-10-09T13:19:45.593Z,11.02
2023-10-09T13:22:12.131Z,10.88
2023-10-09T13:24:38.576Z,13.88
2023-10-09T13:27:05.039Z,8.97
2023-10-09T13:29:31.501Z,10.52
2023-10-09T13:31:57.961Z,9.57
2023-10-09T13:34:24.819Z,11.00
2023-10-09T13:36:52.985Z,10.93
2023-10-09T13:39:20.173Z,13.27
2023-10-09T13:41:47.073Z,9.20
2023-10-09T13:44:13.744Z,9.77
2023-10-09T13:46:40.631Z,10.95
2023-10-09T13:49:07.164Z,10.73
2023-10-09T13:51:33.645Z,10.47
2023-10-09T13:54:01.533Z,10.82
2023-10-09T13:56:27.972Z,11.98
2023-10-09T13:58:54.489Z,9.85
2023-10-09T14:01:21.385Z,11.20
2023-10-09T14:03:48.872Z,9.40
2023-10-09T14:06:15.515Z,10.80
2023-10-09T14:08:42.107Z,11.07
2023-10-09T14:11:10.004Z,10.38
2023-10-09T14:13:36.607Z,10.23
2023-10-09T14:16:03.464Z,11.47
2023-10-09T14:18:30.016Z,15.32
2023-10-09T14:20:56.526Z,11.93
2023-10-09T14:23:23.074Z,13.07
2023-10-09T14:25:49.549Z,12.32
2023-10-09T14:28:17.501Z,10.80
2023-10-09T14:30:44.419Z,9.52
2023-10-09T14:33:11.649Z,10.63
2023-10-09T14:35:38.074Z,11.35
2023-10-09T14:38:04.737Z,11.98
2023-10-09T14:40:31.264Z,12.80
2023-10-09T14:42:58.247Z,12.98
2023-10-09T14:45:26.412Z,13.20
2023-10-09T14:47:56.320Z,9.38
2023-10-09T14:50:23.155Z,12.00
2023-10-09T14:52:49.928Z,10.27
2023-10-09T14:55:16.584Z,11.75
2023-10-09T14:57:43.081Z,10.20
2023-10-09T15:00:10.299Z,13.40
2023-10-09T15:02:38.097Z,11.40
2023-10-09T15:05:05.509Z,11.47
2023-10-09T15:10:05.993Z,14.27
2023-10-09T15:12:33.446Z,13.02
2023-10-09T15:15:02.918Z,11.50
2023-10-09T15:17:29.398Z,12.50
2023-10-09T15:19:57.256Z,9.40
2023-10-09T15:22:23.778Z,11.20
2023-10-09T15:24:50.213Z,12.82
2023-10-09T15:27:16.652Z,13.73
2023-10-09T15:29:43.310Z,14.13
2023-10-09T15:32:09.837Z,9.73
2023-10-09T15:34:36.571Z,11.65
2023-10-09T15:37:04.910Z,11.57
2023-10-09T15:39:31.435Z,10.90
2023-10-09T15:41:58.125Z,11.33
2023-10-09T15:44:26.094Z,11.73
2023-10-09T15:46:54.561Z,10.02
2023-10-09T15:49:21.111Z,12.90
2023-10-09T15:51:47.571Z,12.68
2023-10-09T15:54:15.588Z,12.23
2023-10-09T15:56:45.025Z,12.15
2023-10-09T15:59:15.517Z,11.20
2023-10-09T16:01:42.389Z,12.32
2023-10-09T16:04:09.440Z,12.73
2023-10-09T16:06:36.181Z,14.73
2023-10-09T16:09:02.618Z,11.75
2023-10-09T16:11:30.488Z,12.00
2023-10-09T16:13:57.039Z,10.77
2023-10-09T16:16:27.202Z,12.50
2023-10-09T16:18:54.748Z,11.77
2023-10-09T16:21:21.216Z,9.75
2023-10-09T16:23:47.783Z,11.68
2023-10-09T16:26:14.303Z,12.50
2023-10-09T16:28:42.263Z,10.75
2023-10-09T16:31:08.814Z,11.40
2023-10-09T16:33:35.303Z,13.35
2023-10-09T16:36:01.756Z,15.57
2023-10-09T16:38:28.266Z,11.68
2023-10-09T16:40:55.737Z,13.75
2023-10-09T16:43:22.781Z,15.17
2023-10-09T16:45:50.617Z,11.70
2023-10-09T16:48:17.134Z,13.15
2023-10-09T16:50:44.133Z,10.45
2023-10-09T16:53:10.624Z,10.27
2023-10-09T16:55:40.535Z,13.57
2023-10-09T16:58:07.001Z,11.35
2023-10-09T17:00:33.456Z,11.50
2023-10-09T17:03:02.285Z,9.98
2023-10-09T17:05:29.727Z,11.52
2023-10-09T17:07:56.498Z,12.27
2023-10-09T17:10:23.047Z,12.25
2023-10-09T17:12:49.669Z,12.50
2023-10-09T17:15:16.237Z,13.50
2023-10-09T17:17:44.224Z,10.98
2023-10-09T17:20:13.164Z,15.00
2023-10-09T17:22:40.108Z,13.80
2023-10-09T17:25:07.423Z,10.95
2023-10-09T17:27:33.891Z,12.52
2023-10-09T17:30:00.667Z,18.02
2023-10-09T17:32:27.195Z,14.50
2023-10-09T17:34:54.248Z,11.98
2023-10-09T17:37:22.080Z,12.10
2023-10-09T17:39:48.973Z,11.95
2023-10-09T17:42:17.339Z,13.35
2023-10-09T17:44:44.069Z,11.73
2023-10-09T17:47:10.734Z,14.75
2023-10-09T17:49:37.363Z,11.90
2023-10-09T17:52:04.038Z,16.08
2023-10-09T17:54:31.833Z,12.48
2023-10-09T17:56:58.709Z,11.70
2023-10-09T17:59:27.781Z,10.82
2023-10-09T18:01:54.481Z,13.48
2023-10-09T18:04:23.183Z,13.27
2023-10-09T18:06:50.026Z,12.60
2023-10-09T18:09:16.992Z,13.57
2023-10-09T18:11:45.591Z,13.63
2023-10-09T18:14:12.776Z,11.05
2023-10-09T18:16:39.341Z,12.63
2023-10-09T18:19:05.915Z,10.98
2023-10-09T18:21:32.334Z,12.27
2023-10-09T18:23:59.073Z,11.60
2023-10-09T18:26:25.648Z,13.38
2023-10-09T18:28:56.556Z,12.35
2023-10-09T18:31:23.040Z,12.63
2023-10-09T18:33:49.800Z,11.77
2023-10-09T18:36:16.322Z,10.75
2023-10-09T18:38:42.822Z,13.38
2023-10-09T18:41:09.426Z,13.30
2023-10-09T18:43:36.034Z,10.82
2023-10-09T18:46:05.737Z,13.93
2023-10-09T18:48:32.199Z,12.60
2023-10-09T18:51:00.984Z,11.57
2023-10-09T18:53:28.484Z,12.45
2023-10-09T18:55:55.038Z,12.07
2023-10-09T18:58:21.570Z,11.13
2023-10-09T19:00:50.157Z,11.35
2023-10-09T19:03:19.594Z,13.63
2023-10-09T19:05:46.385Z,11.15
2023-10-09T19:08:13.272Z,15.57
2023-10-09T19:10:40.159Z,13.27
2023-10-09T19:13:06.656Z,13.48
2023-10-09T19:15:33.393Z,12.77
2023-10-09T19:18:00.069Z,11.30
2023-10-09T19:20:28.051Z,12.18
2023-10-09T19:22:54.605Z,11.67
2023-10-09T19:25:21.393Z,13.40
2023-10-09T19:27:49.622Z,13.18
2023-10-09T19:30:16.507Z,13.93
2023-10-09T19:32:43.292Z,10.77
2023-10-09T19:35:10.305Z,14.10
2023-10-09T19:37:38.119Z,14.02
2023-10-09T19:40:05.517Z,13.63
2023-10-09T19:42:32.017Z,13.27
2023-10-09T19:44:58.471Z,12.00
2023-10-09T19:47:25.091Z,14.07
2023-10-09T19:49:51.889Z,12.82
2023-10-09T19:52:21.460Z,10.07
2023-10-09T19:54:49.411Z,13.80
2023-10-09T19:57:15.844Z,14.30
2023-10-09T19:59:42.447Z,12.13
2023-10-09T20:02:08.939Z,11.52
2023-10-09T20:04:35.439Z,12.82
2023-10-09T20:07:01.929Z,12.30
2023-10-09T20:09:28.636Z,11.93
2023-10-09T20:11:56.408Z,11.83
2023-10-09T20:14:23.129Z,12.68
2023-10-09T20:16:49.742Z,13.73
2023-10-09T20:19:16.489Z,13.13
2023-10-09T20:21:43.008Z,12.40
2023-10-09T20:24:09.463Z,11.20
2023-10-09T20:26:36.377Z,11.32
2023-10-09T20:29:04.788Z,11.82
2023-10-09T20:31:31.272Z,13.18
2023-10-09T20:33:57.697Z,12.82
2023-10-09T20:36:25.764Z,13.83
2023-10-09T20:38:55.660Z,11.80
2023-10-09T20:41:22.178Z,14.10
2023-10-09T20:43:48.855Z,13.73
2023-10-09T20:46:17.344Z,12.98
2023-10-09T20:48:47.613Z,11.83
2023-10-09T20:51:15.362Z,12.40
2023-10-09T20:53:42.178Z,14.82
2023-10-09T20:56:09.038Z,12.13
2023-10-09T20:58:35.717Z,12.70
2023-10-09T21:01:07.591Z,11.87
2023-10-09T21:03:35.863Z,13.32
2023-10-09T21:06:02.790Z,14.50
2023-10-09T21:08:29.362Z,12.68
2023-10-09T21:10:55.980Z,15.70
2023-10-09T21:13:22.609Z,13.93
2023-10-09T21:15:49.472Z,12.98
2023-10-09T21:18:16.124Z,13.05
2023-10-09T21:20:44.183Z,13.25
2023-10-09T21:23:11.031Z,16.58
2023-10-09T21:25:37.833Z,12.20
2023-10-09T21:28:04.981Z,14.23
2023-10-09T21:30:31.595Z,12.40
2023-10-09T21:32:58.286Z,13.10
2023-10-09T21:35:25.022Z,13.73
2023-10-09T21:37:54.215Z,17.37
2023-10-09T21:40:23.185Z,16.17
2023-10-09T21:42:50.347Z,16.40
2023-10-09T21:45:16.960Z,12.05
2023-10-09T21:47:43.497Z,15.70
2023-10-09T21:50:10.669Z,13.63
2023-10-09T21:52:37.257Z,14.88
2023-10-09T21:55:06.327Z,14.65
2023-10-09T21:57:32.834Z,13.43
2023-10-09T21:59:59.271Z,13.80
2023-10-09T22:02:27.462Z,15.20
2023-10-09T22:04:54.042Z,13.55
2023-10-09T22:07:31.744Z,18.17
2023-10-09T22:09:59.346Z,12.88
2023-10-09T22:12:27.236Z,16.50
2023-10-09T22:14:53.815Z,15.47
2023-10-09T22:17:23.286Z,17.40
2023-10-09T22:19:49.918Z,18.38
2023-10-09T22:22:19.421Z,16.17
2023-10-09T22:24:45.911Z,13.48
2023-10-09T22:27:12.409Z,14.83
2023-10-09T22:29:40.283Z,15.38
2023-10-09T22:32:09.413Z,16.73
2023-10-09T22:34:35.934Z,16.00
2023-10-09T22:37:02.394Z,16.48
2023-10-09T22:39:28.911Z,15.57
2023-10-09T22:41:56.162Z,14.73
2023-10-09T22:44:25.258Z,16.02
2023-10-09T22:46:53.529Z,16.90
2023-10-09T22:49:20.175Z,18.42
2023-10-09T22:51:46.721Z,17.13
2023-10-09T22:54:13.247Z,17.42
2023-10-09T22:56:39.851Z,17.52
2023-10-09T22:59:06.428Z,18.08
2023-10-09T23:01:33.081Z,20.02
2023-10-09T23:04:01.213Z,16.97
2023-10-09T23:06:28.085Z,18.40
2023-10-09T23:08:54.612Z,17.05
2023-10-09T23:11:21.161Z,17.98
2023-10-09T23:13:47.651Z,20.00
2023-10-09T23:16:14.186Z,20.30
2023-10-09T23:18:41.269Z,19.83
2023-10-09T23:21:09.101Z,19.63
2023-10-09T23:23:35.554Z,18.02
2023-10-09T23:26:02.316Z,22.80
2023-10-09T23:28:28.881Z,23.47
2023-10-09T23:30:55.357Z,22.30
2023-10-09T23:33:22.450Z,22.52
2023-10-09T23:35:49.502Z,20.73
2023-10-09T23:38:18.707Z,21.95
2023-10-09T23:40:45.942Z,20.23
2023-10-09T23:43:13.932Z,19.00
2023-10-09T23:45:41.324Z,24.40
2023-10-09T23:48:09.361Z,20.38
2023-10-09T23:50:35.913Z,20.75
2023-10-09T23:53:02.577Z,21.53
2023-10-09T23:55:30.553Z,20.88
2023-10-09T23:57:57.022Z,22.50
